createdAt,value
2023-12-09T00:01:30.809Z,97776.34
2023-12-09T00:03:58.086Z,97789.81
2023-12-09T00:06:25.390Z,97802.78
2023-12-09T00:08:53.043Z,97788.44
2023-12-09T00:11:20.310Z,97800.47
2023-12-09T00:13:47.529Z,97799.09
2023-12-09T00:16:15.115Z,97792.97
2023-12-09T00:18:42.463Z,97795.31
2023-12-09T00:21:09.691Z,97804.81
2023-12-09T00:23:47.125Z,97801.56
2023-12-09T00:26:16.370Z,97795.28
2023-12-09T00:28:46.542Z,97799.31
2023-12-09T00:31:14.208Z,97792.94
2023-12-09T00:33:41.712Z,97788.34
2023-12-09T00:36:09.305Z,97792.94
2023-12-09T00:38:36.753Z,97784.53
2023-12-09T00:41:04.088Z,97797.50
2023-12-09T00:43:31.200Z,97787.50
2023-12-09T00:45:58.449Z,97784.94
2023-12-09T00:48:25.802Z,97797.47
2023-12-09T00:50:53.363Z,97792.41
2023-12-09T00:53:20.522Z,97788.13
2023-12-09T00:55:47.819Z,97785.13
2023-12-09T00:58:15.260Z,97782.63
2023-12-09T01:00:42.506Z,97792.03
2023-12-09T01:03:10.055Z,97794.97
2023-12-09T01:05:37.411Z,97805.13
2023-12-09T01:08:07.144Z,97797.38
2023-12-09T01:10:34.501Z,97812.22
2023-12-09T01:13:01.887Z,97803.91
2023-12-09T01:15:29.071Z,97794.59
2023-12-09T01:17:57.130Z,97798.91
2023-12-09T01:20:25.644Z,97796.47
2023-12-09T01:22:53.095Z,97794.94
2023-12-09T01:25:20.652Z,97795.56
2023-12-09T01:27:47.981Z,97791.47
2023-12-09T01:30:15.490Z,97800.69
2023-12-09T01:32:42.841Z,97797.47
2023-12-09T01:35:11.178Z,97795.50
2023-12-09T01:37:38.348Z,97790.72
2023-12-09T01:40:05.850Z,97799.19
2023-12-09T01:42:33.022Z,97805.44
2023-12-09T01:45:06.032Z,97802.56
2023-12-09T01:47:33.483Z,97806.63
2023-12-09T01:50:07.704Z,97803.63
2023-12-09T01:52:35.504Z,97800.16
2023-12-09T01:55:06.910Z,97807.75
2023-12-09T01:57:34.822Z,97808.88
2023-12-09T02:00:06.925Z,97811.97
2023-12-09T02:02:34.171Z,97810.41
2023-12-09T02:05:06.249Z,97810.09
2023-12-09T02:07:35.340Z,97813.03
2023-12-09T02:10:07.164Z,97806.66
2023-12-09T02:13:01.785Z,97806.38
2023-12-09T02:15:46.339Z,97804.19
2023-12-09T02:18:13.691Z,97801.78
2023-12-09T02:20:40.959Z,97809.91
2023-12-09T02:23:09.742Z,97802.09
2023-12-09T02:25:39.234Z,97811.53
2023-12-09T02:28:19.155Z,97812.41
2023-12-09T02:30:49.124Z,97808.94
2023-12-09T02:33:18.068Z,97811.25
2023-12-09T02:35:47.703Z,97814.41
2023-12-09T02:38:17.491Z,97808.25
2023-12-09T02:40:45.903Z,97808.00
2023-12-09T02:43:14.118Z,97808.66
2023-12-09T02:45:41.663Z,97810.06
2023-12-09T02:48:08.953Z,97803.56
2023-12-09T02:50:37.421Z,97808.63
2023-12-09T02:53:05.060Z,97811.03
2023-12-09T02:55:32.285Z,97816.69
2023-12-09T02:57:59.394Z,97806.81
2023-12-09T03:00:26.655Z,97812.59
2023-12-09T03:02:53.927Z,97819.09
2023-12-09T03:05:21.312Z,97807.38
2023-12-09T03:07:48.573Z,97815.06
2023-12-09T03:10:15.770Z,97811.53
2023-12-09T03:12:42.917Z,97817.59
2023-12-09T03:15:10.820Z,97821.50
2023-12-09T03:17:38.438Z,97827.59
2023-12-09T03:20:10.045Z,97814.00
2023-12-09T03:22:37.109Z,97809.25
2023-12-09T03:25:05.229Z,97808.94
2023-12-09T03:27:32.770Z,97807.81
2023-12-09T03:30:05.310Z,97815.34
2023-12-09T03:32:32.850Z,97813.84
2023-12-09T03:35:05.012Z,97809.69
2023-12-09T03:37:32.233Z,97814.28
2023-12-09T03:40:05.386Z,97819.69
2023-12-09T03:42:32.785Z,97814.75
2023-12-09T03:45:06.446Z,97829.47
2023-12-09T03:47:35.650Z,97824.22
2023-12-09T03:50:05.627Z,97818.28
2023-12-09T03:52:32.791Z,97815.28
2023-12-09T03:55:05.187Z,97817.72
2023-12-09T03:57:32.655Z,97823.78
2023-12-09T04:00:06.579Z,97833.41
2023-12-09T04:02:34.297Z,97835.81
2023-12-09T04:05:07.370Z,97839.16
2023-12-09T04:07:34.542Z,97840.09
2023-12-09T04:10:05.527Z,97828.75
2023-12-09T04:12:32.847Z,97829.81
2023-12-09T04:15:05.979Z,97833.28
2023-12-09T04:17:33.179Z,97835.19
2023-12-09T04:20:10.330Z,97832.06
2023-12-09T04:22:39.179Z,97822.00
2023-12-09T04:25:07.591Z,97823.38
2023-12-09T04:27:35.559Z,97817.13
2023-12-09T04:30:06.843Z,97820.63
2023-12-09T04:32:34.112Z,97822.16
2023-12-09T04:35:06.129Z,97824.75
2023-12-09T04:37:33.710Z,97825.78
2023-12-09T04:40:06.370Z,97837.66
2023-12-09T04:42:34.713Z,97830.69
2023-12-09T04:45:07.354Z,97830.97
2023-12-09T04:47:35.286Z,97842.81
2023-12-09T04:50:09.157Z,97845.34
2023-12-09T04:52:38.810Z,97847.75
2023-12-09T04:55:06.897Z,97848.47
2023-12-09T04:57:34.115Z,97860.94
2023-12-09T05:00:06.651Z,97849.66
2023-12-09T05:02:34.082Z,97852.59
2023-12-09T05:05:05.980Z,97843.44
2023-12-09T05:07:33.101Z,97839.34
2023-12-09T05:10:05.396Z,97842.06
2023-12-09T05:12:32.979Z,97842.19
2023-12-09T05:15:05.461Z,97836.44
2023-12-09T05:17:33.496Z,97840.44
2023-12-09T05:20:06.284Z,97841.97
2023-12-09T05:22:33.418Z,97839.50
2023-12-09T05:25:06.576Z,97831.09
2023-12-09T05:27:34.021Z,97833.94
2023-12-09T05:30:05.295Z,97836.25
2023-12-09T05:32:33.110Z,97824.75
2023-12-09T05:35:05.400Z,97827.56
2023-12-09T05:37:32.798Z,97820.16
2023-12-09T05:40:05.903Z,97817.09
2023-12-09T05:42:33.513Z,97824.25
2023-12-09T05:45:04.372Z,97825.72
2023-12-09T05:47:32.126Z,97825.03
2023-12-09T05:50:02.595Z,97823.22
2023-12-09T05:52:31.154Z,97826.56
2023-12-09T05:54:58.508Z,97826.88
2023-12-09T05:57:31.281Z,97824.00
2023-12-09T05:59:58.425Z,97837.81
2023-12-09T06:02:32.247Z,97835.63
2023-12-09T06:05:05.438Z,97843.75
2023-12-09T06:07:32.603Z,97832.84
2023-12-09T06:10:06.302Z,97846.22
2023-12-09T06:12:34.036Z,97841.94
2023-12-09T06:15:05.294Z,97844.19
2023-12-09T06:17:35.217Z,97837.31
2023-12-09T06:20:08.277Z,97829.75
2023-12-09T06:22:38.486Z,97830.84
2023-12-09T06:25:05.780Z,97842.19
2023-12-09T06:27:32.888Z,97844.16
2023-12-09T06:30:05.459Z,97846.97
2023-12-09T06:32:32.960Z,97843.91
2023-12-09T06:35:05.532Z,97851.34
2023-12-09T06:37:33.040Z,97846.47
2023-12-09T06:40:05.610Z,97856.69
2023-12-09T06:42:33.679Z,97853.28
2023-12-09T06:45:05.337Z,97852.72
2023-12-09T06:47:33.861Z,97846.75
2023-12-09T06:50:05.098Z,97847.84
2023-12-09T06:52:32.248Z,97837.56
2023-12-09T06:55:02.673Z,97844.66
2023-12-09T06:57:31.488Z,97847.25
2023-12-09T07:00:09.631Z,97857.09
2023-12-09T07:02:48.625Z,97851.19
2023-12-09T07:05:24.191Z,97849.56
2023-12-09T07:07:52.028Z,97858.53
2023-12-09T07:10:19.512Z,97853.47
2023-12-09T07:12:46.915Z,97858.44
2023-12-09T07:15:14.214Z,97853.00
2023-12-09T07:17:41.456Z,97852.50
2023-12-09T07:20:08.860Z,97859.94
2023-12-09T07:22:38.799Z,97860.25
2023-12-09T07:25:06.285Z,97855.72
2023-12-09T07:27:33.695Z,97857.22
2023-12-09T07:30:06.795Z,97851.28
2023-12-09T07:32:34.348Z,97849.31
2023-12-09T07:35:05.973Z,97865.19
2023-12-09T07:37:33.173Z,97864.06
2023-12-09T07:40:06.322Z,97868.56
2023-12-09T07:42:36.522Z,97876.09
2023-12-09T07:45:05.209Z,97874.72
2023-12-09T07:47:35.004Z,97865.66
2023-12-09T07:50:05.068Z,97866.50
2023-12-09T07:52:32.818Z,97860.16
2023-12-09T07:55:05.619Z,97854.50
2023-12-09T07:57:32.928Z,97856.38
2023-12-09T08:00:06.962Z,97845.84
2023-12-09T08:02:34.161Z,97845.44
2023-12-09T08:05:05.885Z,97837.88
2023-12-09T08:07:33.020Z,97844.81
2023-12-09T08:10:05.765Z,97837.63
2023-12-09T08:12:33.210Z,97846.28
2023-12-09T08:15:03.110Z,97839.06
2023-12-09T08:17:31.246Z,97835.22
2023-12-09T08:19:58.427Z,97840.03
2023-12-09T08:22:31.427Z,97838.44
2023-12-09T08:24:58.645Z,97836.03
2023-12-09T08:27:31.188Z,97828.16
2023-12-09T08:29:58.296Z,97822.75
2023-12-09T08:32:31.532Z,97827.44
2023-12-09T08:35:07.041Z,97830.38
2023-12-09T08:37:38.214Z,97826.03
2023-12-09T08:40:14.063Z,97824.47
2023-12-09T08:42:46.312Z,97821.53
2023-12-09T08:45:15.834Z,97823.72
2023-12-09T08:47:45.493Z,97837.13
2023-12-09T08:50:22.661Z,97842.91
2023-12-09T08:52:53.956Z,97835.31
2023-12-09T08:55:21.543Z,97839.38
2023-12-09T08:57:53.758Z,97839.50
2023-12-09T09:00:24.943Z,97839.72
2023-12-09T09:02:57.282Z,97828.09
2023-12-09T09:05:26.455Z,97827.59
2023-12-09T09:07:53.777Z,97825.13
2023-12-09T09:10:21.696Z,97834.78
2023-12-09T09:12:48.929Z,97839.22
2023-12-09T09:15:17.691Z,97840.91
2023-12-09T09:17:44.909Z,97841.00
2023-12-09T09:20:12.298Z,97835.03
2023-12-09T09:22:40.766Z,97832.41
2023-12-09T09:25:09.317Z,97830.19
2023-12-09T09:27:37.337Z,97830.88
2023-12-09T09:30:05.402Z,97843.88
2023-12-09T09:32:32.864Z,97839.84
2023-12-09T09:35:04.107Z,97844.53
2023-12-09T09:37:31.591Z,97841.47
2023-12-09T09:39:58.968Z,97838.78
2023-12-09T09:42:33.955Z,97842.75
2023-12-09T09:45:19.845Z,97836.59
2023-12-09T09:47:49.585Z,97839.72
2023-12-09T09:50:25.409Z,97830.03
2023-12-09T09:52:54.291Z,97828.97
2023-12-09T09:55:23.731Z,97825.44
2023-12-09T09:57:54.258Z,97815.97
2023-12-09T10:00:22.940Z,97809.97
2023-12-09T10:02:54.483Z,97808.19
2023-12-09T10:05:23.613Z,97806.28
2023-12-09T10:07:52.320Z,97804.09
2023-12-09T10:10:20.866Z,97794.31
2023-12-09T10:12:48.270Z,97787.56
2023-12-09T10:15:15.668Z,97769.91
2023-12-09T10:17:42.989Z,97759.88
2023-12-09T10:20:11.975Z,97763.19
2023-12-09T10:22:40.926Z,97767.56
2023-12-09T10:25:09.034Z,97762.44
2023-12-09T10:27:36.538Z,97756.72
2023-12-09T10:30:05.368Z,97748.34
2023-12-09T10:32:34.936Z,97744.59
2023-12-09T10:35:06.463Z,97741.56
2023-12-09T10:37:34.212Z,97725.72
2023-12-09T10:40:09.316Z,97713.56
2023-12-09T10:42:39.935Z,97707.88
2023-12-09T10:45:09.204Z,97707.41
2023-12-09T10:47:36.923Z,97720.47
2023-12-09T10:50:06.210Z,97714.81
2023-12-09T10:52:35.832Z,97700.31
2023-12-09T10:55:05.614Z,97693.22
2023-12-09T10:57:34.754Z,97694.09
2023-12-09T11:00:12.096Z,97688.06
2023-12-09T11:02:44.720Z,97690.78
2023-12-09T11:05:13.015Z,97693.22
2023-12-09T11:07:41.869Z,97676.63
2023-12-09T11:10:11.452Z,97672.06
2023-12-09T11:12:38.913Z,97670.75
2023-12-09T11:15:14.910Z,97671.78
2023-12-09T11:17:45.502Z,97664.13
2023-12-09T11:20:17.277Z,97661.19
2023-12-09T11:22:45.974Z,97654.97
2023-12-09T11:25:26.850Z,97661.19
2023-12-09T11:27:54.822Z,97649.25
2023-12-09T11:30:57.732Z,97642.50
2023-12-09T11:33:25.473Z,97634.50
2023-12-09T11:35:56.600Z,97641.88
2023-12-09T11:38:25.025Z,97645.69
2023-12-09T11:40:53.154Z,97645.16
2023-12-09T11:43:20.664Z,97634.84
2023-12-09T11:45:48.250Z,97643.59
2023-12-09T11:48:16.760Z,97639.03
2023-12-09T11:50:44.057Z,97643.06
2023-12-09T11:53:11.208Z,97644.09
2023-12-09T11:55:38.894Z,97638.97
2023-12-09T11:58:06.024Z,97629.44
2023-12-09T12:00:33.286Z,97628.66
2023-12-09T12:03:00.831Z,97620.75
2023-12-09T12:05:28.011Z,97605.78
2023-12-09T12:07:55.661Z,97604.44
2023-12-09T12:10:23.515Z,97606.09
2023-12-09T12:12:51.047Z,97603.97
2023-12-09T12:15:18.756Z,97603.38
2023-12-09T12:17:46.180Z,97599.03
2023-12-09T12:20:16.470Z,97584.84
2023-12-09T12:22:43.666Z,97585.41
2023-12-09T12:25:11.389Z,97579.44
2023-12-09T12:27:46.073Z,97566.13
2023-12-09T12:30:16.688Z,97554.16
2023-12-09T12:32:57.592Z,97529.94
2023-12-09T12:35:27.427Z,97532.41
2023-12-09T12:37:58.802Z,97534.59
2023-12-09T12:40:28.080Z,97527.78
2023-12-09T12:42:56.397Z,97516.09
2023-12-09T12:45:27.784Z,97509.03
2023-12-09T12:47:56.031Z,97511.47
2023-12-09T12:50:23.532Z,97498.94
2023-12-09T12:52:50.697Z,97494.06
2023-12-09T12:55:21.058Z,97491.31
2023-12-09T12:57:48.806Z,97492.41
2023-12-09T13:00:18.997Z,97490.19
2023-12-09T13:02:46.576Z,97488.03
2023-12-09T13:05:13.849Z,97488.84
2023-12-09T13:07:41.365Z,97485.31
2023-12-09T13:10:08.698Z,97477.97
2023-12-09T13:12:36.742Z,97463.25
2023-12-09T13:15:06.416Z,97457.56
2023-12-09T13:17:33.833Z,97454.56
2023-12-09T13:20:05.527Z,97444.81
2023-12-09T13:22:33.011Z,97451.31
2023-12-09T13:25:06.823Z,97434.16
2023-12-09T13:27:34.986Z,97435.25
2023-12-09T13:30:08.364Z,97417.78
2023-12-09T13:32:36.363Z,97416.97
2023-12-09T13:35:07.567Z,97407.50
2023-12-09T13:37:35.631Z,97406.09
2023-12-09T13:40:06.385Z,97400.94
2023-12-09T13:42:34.211Z,97395.50
2023-12-09T13:45:06.124Z,97384.91
2023-12-09T13:47:33.832Z,97379.16
2023-12-09T13:50:06.565Z,97375.38
2023-12-09T13:52:35.577Z,97359.81
2023-12-09T13:55:06.323Z,97360.13
2023-12-09T13:57:34.167Z,97361.19
2023-12-09T14:00:05.311Z,97357.09
2023-12-09T14:02:32.850Z,97354.06
2023-12-09T14:05:05.420Z,97362.25
2023-12-09T14:07:32.840Z,97361.16
2023-12-09T14:10:02.599Z,97352.19
2023-12-09T14:12:31.418Z,97357.91
2023-12-09T14:14:59.487Z,97355.19
2023-12-09T14:17:32.823Z,97342.69
2023-12-09T14:20:07.217Z,97337.53
2023-12-09T14:22:34.883Z,97345.69
2023-12-09T14:25:06.103Z,97341.09
2023-12-09T14:27:35.382Z,97340.22
2023-12-09T14:30:06.942Z,97337.78
2023-12-09T14:32:34.541Z,97335.00
2023-12-09T14:35:06.627Z,97332.84
2023-12-09T14:37:34.946Z,97323.09
2023-12-09T14:40:06.862Z,97327.09
2023-12-09T14:42:34.205Z,97326.09
2023-12-09T14:45:06.034Z,97324.13
2023-12-09T14:47:33.498Z,97325.19
2023-12-09T14:50:05.515Z,97320.63
2023-12-09T14:52:32.896Z,97304.84
2023-12-09T14:55:03.154Z,97298.88
2023-12-09T14:57:31.149Z,97294.78
2023-12-09T14:59:58.776Z,97281.47
2023-12-09T15:02:29.185Z,97266.97
2023-12-09T15:04:56.506Z,97269.38
2023-12-09T15:07:23.989Z,97262.06
2023-12-09T15:09:54.306Z,97258.06
2023-12-09T15:12:21.425Z,97257.75
2023-12-09T15:14:50.699Z,97261.81
2023-12-09T15:17:18.394Z,97259.91
2023-12-09T15:19:45.780Z,97260.53
2023-12-09T15:22:13.807Z,97252.91
2023-12-09T15:24:41.337Z,97257.50
2023-12-09T15:27:08.770Z,97243.09
2023-12-09T15:29:36.122Z,97237.31
2023-12-09T15:32:03.872Z,97232.47
2023-12-09T15:34:31.982Z,97222.75
2023-12-09T15:37:00.222Z,97223.88
2023-12-09T15:39:27.765Z,97217.53
2023-12-09T15:41:55.550Z,97205.31
2023-12-09T15:44:22.941Z,97196.06
2023-12-09T15:46:50.711Z,97180.31
2023-12-09T15:49:25.787Z,97183.28
2023-12-09T15:51:53.439Z,97170.75
2023-12-09T15:54:22.745Z,97169.13
2023-12-09T15:56:50.583Z,97164.56
2023-12-09T15:59:18.643Z,97155.09
2023-12-09T16:01:48.321Z,97142.00
2023-12-09T16:04:15.809Z,97130.94
2023-12-09T16:06:43.326Z,97143.41
2023-12-09T16:09:10.592Z,97134.72
2023-12-09T16:11:37.774Z,97133.91
2023-12-09T16:14:04.952Z,97116.00
2023-12-09T16:16:34.844Z,97097.47
2023-12-09T16:19:02.471Z,97092.53
2023-12-09T16:21:29.908Z,97087.72
2023-12-09T16:23:57.070Z,97083.63
2023-12-09T16:26:24.569Z,97058.88
2023-12-09T16:28:51.767Z,97058.38
2023-12-09T16:31:19.299Z,97067.03
2023-12-09T16:33:46.978Z,97042.31
2023-12-09T16:36:14.560Z,97037.75
2023-12-09T16:38:41.889Z,97041.53
2023-12-09T16:41:11.801Z,97046.97
2023-12-09T16:43:39.779Z,97039.59
2023-12-09T16:46:07.072Z,97052.88
2023-12-09T16:48:34.566Z,97051.28
2023-12-09T16:51:01.887Z,97057.66
2023-12-09T16:53:29.403Z,97053.03
2023-12-09T16:55:56.891Z,97052.47
2023-12-09T16:58:24.077Z,97044.38
2023-12-09T17:00:51.401Z,97029.19
2023-12-09T17:03:19.930Z,97025.66
2023-12-09T17:05:48.275Z,97012.31
2023-12-09T17:08:15.700Z,96995.75
2023-12-09T17:10:42.882Z,96982.38
2023-12-09T17:13:10.874Z,96966.28
2023-12-09T17:15:38.338Z,96958.97
2023-12-09T17:18:06.068Z,96955.72
2023-12-09T17:20:33.655Z,96942.84
2023-12-09T17:23:01.104Z,96937.06
2023-12-09T17:25:28.421Z,96924.47
2023-12-09T17:27:55.540Z,96912.16
2023-12-09T17:30:22.749Z,96895.19
2023-12-09T17:32:50.983Z,96892.41
2023-12-09T17:35:18.588Z,96895.59
2023-12-09T17:37:45.833Z,96899.81
2023-12-09T17:40:13.185Z,96887.31
2023-12-09T17:42:40.641Z,96891.72
2023-12-09T17:45:08.684Z,96878.13
2023-12-09T17:47:36.202Z,96878.00
2023-12-09T17:50:05.903Z,96850.66
2023-12-09T17:52:35.569Z,96850.41
2023-12-09T17:55:05.492Z,96849.50
2023-12-09T17:57:32.732Z,96850.66
2023-12-09T18:00:05.798Z,96839.19
2023-12-09T18:02:33.261Z,96835.84
2023-12-09T18:05:05.364Z,96821.25
2023-12-09T18:07:32.720Z,96809.56
2023-12-09T18:10:06.664Z,96787.50
2023-12-09T18:12:37.183Z,96779.34
2023-12-09T18:15:08.337Z,96756.25
2023-12-09T18:17:35.691Z,96755.19
2023-12-09T18:20:06.224Z,96762.59
2023-12-09T18:22:33.717Z,96755.47
2023-12-09T18:25:05.244Z,96746.69
2023-12-09T18:27:32.729Z,96738.13
2023-12-09T18:30:02.634Z,96732.28
2023-12-09T18:32:37.573Z,96733.00
2023-12-09T18:35:09.840Z,96717.69
2023-12-09T18:37:40.817Z,96702.78
2023-12-09T18:40:11.097Z,96701.25
2023-12-09T18:42:38.908Z,96702.53
2023-12-09T18:45:07.146Z,96716.44
2023-12-09T18:47:37.814Z,96709.31
2023-12-09T18:50:05.683Z,96710.31
2023-12-09T18:52:33.573Z,96701.69
2023-12-09T18:55:06.800Z,96705.25
2023-12-09T18:57:34.151Z,96704.50
2023-12-09T19:00:07.460Z,96702.13
2023-12-09T19:02:34.952Z,96694.56
2023-12-09T19:05:06.149Z,96681.66
2023-12-09T19:07:33.665Z,96677.28
2023-12-09T19:10:06.633Z,96671.50
2023-12-09T19:12:34.121Z,96666.81
2023-12-09T19:15:06.101Z,96648.00
2023-12-09T19:17:33.633Z,96642.28
2023-12-09T19:20:06.166Z,96625.00
2023-12-09T19:22:33.542Z,96628.47
2023-12-09T19:25:06.588Z,96620.59
2023-12-09T19:27:34.106Z,96615.63
2023-12-09T19:30:06.297Z,96596.91
2023-12-09T19:32:33.733Z,96564.88
2023-12-09T19:35:05.322Z,96549.28
2023-12-09T19:37:32.812Z,96537.38
2023-12-09T19:40:03.402Z,96539.00
2023-12-09T19:42:31.965Z,96554.34
2023-12-09T19:45:02.356Z,96543.69
2023-12-09T19:47:31.269Z,96536.09
2023-12-09T19:49:58.995Z,96540.22
2023-12-09T19:52:31.447Z,96525.94
2023-12-09T19:54:58.813Z,96525.66
2023-12-09T19:57:31.660Z,96514.56
2023-12-09T20:02:50.459Z,96494.66
2023-12-09T20:05:19.481Z,96494.66
2023-12-09T20:07:46.828Z,96494.09
2023-12-09T20:10:14.100Z,96475.69
2023-12-09T20:12:41.710Z,96491.41
2023-12-09T20:15:11.566Z,96501.69
2023-12-09T20:17:39.377Z,96508.94
2023-12-09T20:20:07.670Z,96484.38
2023-12-09T20:22:35.826Z,96499.09
2023-12-09T20:25:05.529Z,96480.44
2023-12-09T20:27:33.138Z,96477.91
2023-12-09T20:30:05.588Z,96473.47
2023-12-09T20:32:33.375Z,96479.31
2023-12-09T20:35:05.186Z,96498.00
2023-12-09T20:37:32.434Z,96502.31
2023-12-09T20:40:02.637Z,96515.06
2023-12-09T20:42:31.854Z,96523.03
2023-12-09T20:45:05.746Z,96523.19
2023-12-09T20:47:33.778Z,96528.69
2023-12-09T20:50:06.257Z,96519.44
2023-12-09T20:52:33.525Z,96520.75
2023-12-09T20:55:07.066Z,96537.91
2023-12-09T20:57:34.497Z,96540.41
2023-12-09T21:00:05.351Z,96537.19
2023-12-09T21:02:32.989Z,96539.75
2023-12-09T21:05:05.508Z,96523.69
2023-12-09T21:07:37.030Z,96510.13
2023-12-09T21:10:05.541Z,96497.19
2023-12-09T21:12:33.345Z,96511.19
2023-12-09T21:15:06.271Z,96520.47
2023-12-09T21:17:34.100Z,96537.31
2023-12-09T21:20:05.151Z,96532.59
2023-12-09T21:22:33.571Z,96535.03
2023-12-09T21:25:05.571Z,96522.09
2023-12-09T21:27:33.046Z,96525.78
2023-12-09T21:30:05.177Z,96528.22
2023-12-09T21:32:35.140Z,96526.28
2023-12-09T21:35:06.299Z,96510.19
2023-12-09T21:37:33.450Z,96509.97
2023-12-09T21:40:05.313Z,96512.16
2023-12-09T21:42:33.080Z,96498.78
2023-12-09T21:45:05.423Z,96495.69
2023-12-09T21:47:32.611Z,96497.75
2023-12-09T21:50:05.256Z,96505.75
2023-12-09T21:52:32.642Z,96501.63
2023-12-09T21:55:05.623Z,96511.25
2023-12-09T21:57:32.789Z,96489.41
2023-12-09T22:00:05.220Z,96478.94
2023-12-09T22:02:32.999Z,96475.47
2023-12-09T22:05:05.690Z,96482.41
2023-12-09T22:07:35.999Z,96491.38
2023-12-09T22:10:05.835Z,96494.16
2023-12-09T22:12:33.548Z,96490.13
2023-12-09T22:15:05.727Z,96463.44
2023-12-09T22:17:32.956Z,96442.59
2023-12-09T22:20:05.812Z,96424.75
2023-12-09T22:22:41.071Z,96419.25
2023-12-09T22:25:13.606Z,96433.47
2023-12-09T22:27:40.753Z,96434.59
2023-12-09T22:30:08.979Z,96434.78
2023-12-09T22:32:36.697Z,96457.56
2023-12-09T22:35:06.192Z,96483.97
2023-12-09T22:37:33.608Z,96478.75
2023-12-09T22:40:06.413Z,96490.81
2023-12-09T22:42:34.681Z,96491.13
2023-12-09T22:45:07.127Z,96490.53
2023-12-09T22:47:35.188Z,96488.09
2023-12-09T22:50:06.231Z,96488.78
2023-12-09T22:52:34.053Z,96484.75
2023-12-09T22:55:06.539Z,96511.13
2023-12-09T22:57:33.982Z,96494.94
2023-12-09T23:00:11.269Z,96497.44
2023-12-09T23:02:38.585Z,96507.22
2023-12-09T23:05:09.170Z,96504.34
2023-12-09T23:07:36.294Z,96506.25
2023-12-09T23:10:06.423Z,96500.81
2023-12-09T23:12:34.034Z,96491.88
2023-12-09T23:15:05.403Z,96493.84
2023-12-09T23:17:32.633Z,96481.00
2023-12-09T23:20:05.283Z,96497.44
2023-12-09T23:22:32.531Z,96505.22
2023-12-09T23:25:04.139Z,96498.13
2023-12-09T23:27:32.219Z,96534.09
2023-12-09T23:29:59.983Z,96515.06
2023-12-09T23:32:35.210Z,96532.91
2023-12-09T23:35:05.808Z,96525.00
2023-12-09T23:37:35.902Z,96542.66
2023-12-09T23:40:07.987Z,96526.88
2023-12-09T23:42:35.323Z,96533.69
2023-12-09T23:45:05.379Z,96548.25
2023-12-09T23:47:32.695Z,96551.78
2023-12-09T23:50:05.288Z,96559.34
2023-12-09T23:52:32.554Z,96555.75
2023-12-09T23:55:05.968Z,96555.31
2023-12-09T23:57:33.187Z,96528.34
